首页
METAR-TAF:

METAR-TAF

机场 :

亚特兰大, 喬治亞, 美国

纬度: 33-54-43N, 经度: 084-56-26W, 海拔: 393米

当前天气观测

该预报发布于19分钟前的11:15 UTC
风速6节,风向北转西北
温度 5°C
湿度 70%
气压 1020 hPa
能見度: 16.1公里
天空无云

METAR: KPUJ 181115Z AUTO 33006KT 10SM CLR 05/00 A3012 RMK AO2

时间: 06:34 (11:34 UTC)


TAF: 丢失

超过4000个机场的气象观测和天气预报(METAR&TAF报告)。

可查询的气象台以黄色和红色小点在地图上表示。

将鼠标移到小点上方,可查看气象台名称。

然后点击查看天气观测和预报。

如需切换地图:点击带黑十字的绿色按钮放大地图;点击带横线的绿色按钮缩小地图;或者点击绿色箭头查看邻近地区的地图。


METAR-TAF: